createdAt,value
2018-09-04T00:00:08.389Z,14.00
2018-09-04T00:04:48.913Z,13.90
2018-09-04T00:09:29.359Z,13.90
2018-09-04T00:14:09.628Z,13.90
2018-09-04T00:18:50.380Z,13.90
2018-09-04T00:23:30.362Z,13.90
2018-09-04T00:28:10.413Z,13.80
2018-09-04T00:32:51.146Z,13.80
2018-09-04T00:37:31.768Z,13.80
2018-09-04T00:42:12.609Z,13.70
2018-09-04T00:46:52.556Z,13.60
2018-09-04T00:51:32.387Z,13.60
2018-09-04T00:56:12.853Z,13.50
2018-09-04T01:00:53.612Z,13.50
2018-09-04T01:05:33.838Z,13.50
2018-09-04T01:10:13.904Z,13.40
2018-09-04T01:14:57.239Z,13.30
2018-09-04T01:19:37.097Z,13.30
2018-09-04T01:24:17.174Z,13.30
2018-09-04T01:28:57.381Z,13.30
2018-09-04T01:33:38.326Z,13.20
2018-09-04T01:38:18.188Z,13.20
2018-09-04T01:43:01.081Z,13.20
2018-09-04T01:47:41.386Z,13.10
2018-09-04T01:52:22.194Z,13.00
2018-09-04T01:57:03.427Z,12.90
2018-09-04T02:01:43.692Z,12.90
2018-09-04T02:06:24.079Z,13.00
2018-09-04T02:11:04.879Z,13.00
2018-09-04T02:15:44.973Z,13.00
2018-09-04T02:20:25.973Z,13.00
2018-09-04T02:25:06.709Z,12.80
2018-09-04T02:29:46.661Z,12.80
2018-09-04T02:34:26.968Z,12.80
2018-09-04T02:39:09.893Z,12.70
2018-09-04T02:43:50.231Z,12.60
2018-09-04T02:48:30.980Z,12.60
2018-09-04T02:53:11.353Z,12.60
2018-09-04T02:57:52.742Z,12.60
2018-09-04T03:02:35.390Z,12.60
2018-09-04T03:07:17.860Z,12.50
2018-09-04T03:11:59.133Z,12.50
2018-09-04T03:16:39.265Z,12.40
2018-09-04T03:21:20.565Z,12.40
2018-09-04T03:26:00.661Z,12.50
2018-09-04T03:30:41.521Z,12.60
2018-09-04T03:35:21.116Z,12.70
2018-09-04T03:40:01.892Z,12.80
2018-09-04T03:44:41.871Z,12.90
2018-09-04T03:49:22.078Z,13.00
2018-09-04T03:54:01.860Z,13.10
2018-09-04T03:58:42.140Z,13.20
2018-09-04T04:03:21.825Z,13.30
2018-09-04T04:08:01.737Z,13.40
2018-09-04T04:12:42.148Z,13.40
2018-09-04T04:17:22.332Z,13.40
2018-09-04T04:22:02.408Z,13.40
2018-09-04T04:26:42.392Z,13.30
2018-09-04T04:31:23.257Z,13.40
2018-09-04T04:36:03.921Z,13.40
2018-09-04T04:40:44.915Z,13.50
2018-09-04T04:45:24.702Z,13.50
2018-09-04T04:50:06.419Z,13.60
2018-09-04T04:54:46.374Z,13.60
2018-09-04T04:59:26.466Z,13.60
2018-09-04T05:04:06.797Z,13.60
2018-09-04T05:08:46.746Z,13.70
2018-09-04T05:13:27.168Z,13.60
2018-09-04T05:18:08.308Z,13.60
2018-09-04T05:22:49.947Z,13.60
2018-09-04T05:27:30.734Z,13.50
2018-09-04T05:32:18.566Z,13.50
2018-09-04T05:36:58.871Z,13.50
2018-09-04T05:41:39.665Z,13.50
2018-09-04T05:46:33.677Z,13.60
2018-09-04T05:51:14.427Z,13.70
2018-09-04T05:55:54.756Z,14.00
2018-09-04T06:00:38.510Z,14.20
2018-09-04T06:05:18.846Z,14.50
2018-09-04T06:09:58.621Z,14.90
2018-09-04T06:14:38.748Z,15.20
2018-09-04T06:19:19.001Z,15.50
2018-09-04T06:24:00.403Z,15.60
2018-09-04T06:28:40.227Z,15.60
2018-09-04T06:33:20.975Z,15.90
2018-09-04T06:38:01.042Z,16.20
2018-09-04T06:42:40.751Z,16.60
2018-09-04T06:47:21.562Z,17.30
2018-09-04T06:52:01.744Z,17.60
2018-09-04T06:56:41.696Z,17.80
2018-09-04T07:01:21.776Z,17.80
2018-09-04T07:06:02.499Z,17.90
2018-09-04T07:10:42.683Z,18.10
2018-09-04T07:15:24.744Z,18.50
2018-09-04T07:20:06.499Z,18.90
2018-09-04T07:24:52.006Z,19.50
2018-09-04T07:29:32.825Z,20.10
2018-09-04T07:34:13.677Z,20.80
2018-09-04T07:38:54.925Z,21.40
2018-09-04T07:43:36.792Z,22.10
2018-09-04T07:48:16.752Z,23.30
2018-09-04T07:52:58.973Z,24.80
2018-09-04T07:57:39.412Z,26.40
2018-09-04T08:02:19.704Z,27.80
2018-09-04T08:07:00.796Z,28.90
2018-09-04T08:11:41.497Z,29.60
2018-09-04T08:16:21.567Z,30.60
2018-09-04T08:21:03.567Z,30.90
2018-09-04T08:25:43.684Z,31.00
2018-09-04T08:30:24.121Z,31.40
2018-09-04T08:35:04.620Z,32.20
2018-09-04T08:39:44.648Z,32.30
2018-09-04T08:44:24.649Z,32.30
2018-09-04T08:49:04.720Z,32.60
2018-09-04T08:53:45.212Z,32.80
2018-09-04T08:58:25.424Z,33.30
2018-09-04T09:03:06.059Z,33.80
2018-09-04T09:07:46.308Z,33.70
2018-09-04T09:12:28.494Z,33.40
2018-09-04T09:17:08.850Z,33.70
2018-09-04T09:21:50.536Z,33.70
2018-09-04T09:26:30.409Z,34.30
2018-09-04T09:31:11.300Z,34.70
2018-09-04T09:35:51.119Z,34.50
2018-09-04T09:40:30.918Z,34.40
2018-09-04T09:45:11.072Z,33.10
2018-09-04T09:49:51.283Z,34.00
2018-09-04T09:54:31.195Z,35.00
2018-09-04T09:59:12.173Z,35.20
2018-09-04T10:03:59.967Z,35.40
2018-09-04T10:08:43.361Z,35.50
2018-09-04T10:13:24.154Z,35.60
2018-09-04T10:18:04.371Z,35.10
2018-09-04T10:22:44.984Z,35.30
2018-09-04T10:27:25.649Z,36.10
2018-09-04T10:32:05.969Z,36.40
2018-09-04T10:36:47.165Z,36.70
2018-09-04T10:41:27.401Z,37.80
2018-09-04T10:46:13.200Z,38.00
2018-09-04T10:50:53.533Z,37.50
2018-09-04T10:55:33.253Z,37.00
2018-09-04T11:00:15.308Z,37.10
2018-09-04T11:04:55.800Z,37.90
2018-09-04T11:09:36.364Z,38.90
2018-09-04T11:14:16.412Z,38.30
2018-09-04T11:18:57.071Z,38.30
2018-09-04T11:23:37.281Z,38.00
2018-09-04T11:28:17.339Z,38.30
2018-09-04T11:32:57.955Z,38.60
2018-09-04T11:37:38.181Z,38.40
2018-09-04T11:42:18.172Z,38.40
2018-09-04T11:46:58.496Z,38.20
2018-09-04T11:51:39.001Z,38.30
2018-09-04T11:56:20.452Z,38.70
2018-09-04T12:01:01.740Z,39.20
2018-09-04T12:05:41.976Z,39.20
2018-09-04T12:10:21.603Z,39.10
2018-09-04T12:15:01.590Z,37.40
2018-09-04T12:19:50.444Z,34.50
2018-09-04T12:24:30.511Z,35.20
2018-09-04T12:29:10.971Z,35.70
2018-09-04T12:33:50.682Z,35.60
2018-09-04T12:38:34.228Z,33.70
2018-09-04T12:43:14.592Z,31.70
2018-09-04T12:47:56.371Z,30.40
2018-09-04T12:52:36.911Z,29.40
2018-09-04T12:57:17.506Z,28.70
2018-09-04T13:02:00.212Z,29.00
2018-09-04T13:06:42.507Z,29.20
2018-09-04T13:11:27.868Z,29.00
2018-09-04T13:16:13.405Z,28.40
2018-09-04T13:20:53.464Z,28.10
2018-09-04T13:25:33.924Z,28.00
2018-09-04T13:30:14.708Z,27.90
2018-09-04T13:34:54.734Z,27.70
2018-09-04T13:39:35.381Z,27.70
2018-09-04T13:44:15.177Z,27.50
2018-09-04T13:48:55.109Z,27.40
2018-09-04T13:53:35.714Z,27.40
2018-09-04T13:58:16.651Z,27.50
2018-09-04T14:02:57.652Z,27.40
2018-09-04T14:07:38.166Z,27.40
2018-09-04T14:12:18.220Z,27.20
2018-09-04T14:16:59.405Z,27.20
2018-09-04T14:21:39.363Z,27.30
2018-09-04T14:26:19.352Z,27.20
2018-09-04T14:30:59.169Z,27.00
2018-09-04T14:35:40.041Z,27.00
2018-09-04T14:40:20.553Z,27.20
2018-09-04T14:45:00.602Z,27.40
2018-09-04T14:49:41.121Z,27.30
2018-09-04T14:54:20.968Z,27.30
2018-09-04T14:59:01.671Z,27.60
2018-09-04T15:03:41.330Z,27.50
2018-09-04T15:08:21.148Z,27.20
2018-09-04T15:13:00.984Z,27.20
2018-09-04T15:17:41.553Z,27.30
2018-09-04T15:22:21.568Z,27.20
2018-09-04T15:27:03.060Z,27.10
2018-09-04T15:31:43.291Z,26.90
2018-09-04T15:36:23.836Z,26.80
2018-09-04T15:41:03.940Z,26.70
2018-09-04T15:45:43.985Z,26.40
2018-09-04T15:50:23.892Z,26.30
2018-09-04T15:55:04.593Z,26.50
2018-09-04T15:59:44.417Z,26.40
2018-09-04T16:04:24.361Z,26.10
2018-09-04T16:09:05.764Z,26.10
2018-09-04T16:13:45.657Z,26.00
2018-09-04T16:18:26.133Z,25.90
2018-09-04T16:23:06.964Z,25.70
2018-09-04T16:27:47.014Z,25.50
2018-09-04T16:32:26.812Z,25.20
2018-09-04T16:37:06.628Z,24.90
2018-09-04T16:41:46.433Z,25.00
2018-09-04T16:46:26.936Z,25.10
2018-09-04T16:51:07.636Z,24.90
2018-09-04T16:55:47.548Z,24.70
2018-09-04T17:00:28.664Z,24.70
2018-09-04T17:05:10.302Z,24.80
2018-09-04T17:09:50.104Z,24.70
2018-09-04T17:14:30.776Z,24.60
2018-09-04T17:19:10.598Z,24.50
2018-09-04T17:23:51.350Z,24.40
2018-09-04T17:28:35.162Z,24.30
2018-09-04T17:33:15.206Z,24.00
2018-09-04T17:37:55.122Z,23.80
2018-09-04T17:42:35.280Z,23.60
2018-09-04T17:47:16.254Z,23.40
2018-09-04T17:51:56.139Z,23.30
2018-09-04T17:56:37.200Z,23.20
2018-09-04T18:01:18.505Z,23.00
2018-09-04T18:05:59.012Z,22.90
2018-09-04T18:10:39.862Z,22.70
2018-09-04T18:15:19.840Z,22.50
2018-09-04T18:20:02.176Z,22.30
2018-09-04T18:24:43.548Z,22.30
2018-09-04T18:29:23.752Z,22.10
2018-09-04T18:34:04.208Z,22.00
2018-09-04T18:38:44.716Z,21.90
2018-09-04T18:43:25.856Z,21.90
2018-09-04T18:48:05.805Z,21.80
2018-09-04T18:52:45.556Z,21.70
2018-09-04T18:57:26.099Z,21.60
2018-09-04T19:02:06.412Z,21.50
2018-09-04T19:06:46.953Z,21.40
2018-09-04T19:11:30.516Z,21.30
2018-09-04T19:16:10.744Z,21.20
2018-09-04T19:20:51.832Z,21.00
2018-09-04T19:25:32.296Z,20.70
2018-09-04T19:30:13.611Z,20.60
2018-09-04T19:34:56.194Z,20.50
2018-09-04T19:39:36.525Z,20.40
2018-09-04T19:44:17.234Z,20.20
2018-09-04T19:48:56.974Z,20.00
2018-09-04T19:53:36.981Z,19.90
2018-09-04T19:58:17.671Z,19.80
2018-09-04T20:02:58.356Z,19.70
2018-09-04T20:07:39.568Z,19.70
2018-09-04T20:12:19.870Z,19.60
2018-09-04T20:16:59.916Z,19.50
2018-09-04T20:21:40.232Z,19.40
2018-09-04T20:26:20.397Z,19.40
2018-09-04T20:31:00.544Z,19.40
2018-09-04T20:35:40.627Z,19.30
2018-09-04T20:40:20.368Z,19.30
2018-09-04T20:45:02.363Z,19.40
2018-09-04T20:49:42.097Z,19.40
2018-09-04T20:54:21.965Z,19.40
2018-09-04T20:59:12.994Z,19.30
2018-09-04T21:04:04.161Z,19.30
2018-09-04T21:08:56.413Z,19.20
2018-09-04T21:13:36.953Z,19.20
2018-09-04T21:18:17.571Z,19.20
2018-09-04T21:22:57.677Z,19.20
2018-09-04T21:27:37.480Z,19.20
2018-09-04T21:32:18.529Z,19.10
2018-09-04T21:36:58.930Z,19.00
2018-09-04T21:41:38.996Z,18.90
2018-09-04T21:46:19.486Z,18.80
2018-09-04T21:50:59.432Z,18.80
2018-09-04T21:55:40.502Z,18.70
2018-09-04T22:00:26.485Z,18.60
2018-09-04T22:05:06.801Z,18.50
2018-09-04T22:09:46.468Z,18.40
2018-09-04T22:14:26.462Z,18.30
2018-09-04T22:19:06.400Z,18.20
2018-09-04T22:23:47.016Z,18.00
2018-09-04T22:28:27.720Z,17.90
2018-09-04T22:33:08.028Z,17.80
2018-09-04T22:37:47.961Z,17.60
2018-09-04T22:42:28.749Z,17.50
2018-09-04T22:47:09.660Z,17.40
2018-09-04T22:51:49.470Z,17.40
2018-09-04T22:56:29.320Z,17.20
2018-09-04T23:01:10.853Z,17.10
2018-09-04T23:05:54.391Z,17.10
2018-09-04T23:10:34.200Z,17.00
2018-09-04T23:15:13.928Z,16.90
2018-09-04T23:19:54.496Z,16.90
2018-09-04T23:24:35.638Z,16.80
2018-09-04T23:29:15.293Z,16.90
2018-09-04T23:33:55.440Z,16.90
2018-09-04T23:38:35.461Z,16.80
2018-09-04T23:43:15.886Z,16.80
2018-09-04T23:47:56.029Z,16.70
2018-09-04T23:52:36.968Z,16.60
2018-09-04T23:57:17.356Z,16.60
